Time;durP1;ratioP1;P1;durP2;ratioP2;P2;SDS_P1;SDS_P2;PMS_P1;PMS_P2;Temp;Humidity;BMP_temperature;BMP_pressure;BME280_temperature;BME280_humidity;BME280_pressure;Samples;Min_cycle;Max_cycle;Signal;HPM_P1;HPM_P2
2023/07/07 00:01:07;;;;;;;10.90;4.38;;;13.90;99.90;;;;;;4985424;28;20168;-77
2023/07/07 00:03:33;;;;;;;12.77;4.65;;;13.90;99.90;;;;;;5001739;28;20251;-77
2023/07/07 00:06:00;;;;;;;10.63;4.65;;;13.90;99.90;;;;;;4985381;28;20034;-77
2023/07/07 00:08:25;;;;;;;11.13;4.55;;;13.90;99.90;;;;;;4985004;28;20072;-77
2023/07/07 00:10:52;;;;;;;12.48;4.45;;;13.90;99.90;;;;;;5001362;28;20053;-77
2023/07/07 00:13:18;;;;;;;10.45;4.75;;;13.80;99.90;;;;;;4985043;28;20037;-77
2023/07/07 00:15:46;;;;;;;11.05;4.45;;;13.80;99.90;;;;;;5001516;28;20050;-77
2023/07/07 00:18:27;;;;;;;11.77;4.57;;;13.70;99.90;;;;;;4984791;28;20036;-77
2023/07/07 00:20:54;;;;;;;9.75;4.53;;;13.70;99.90;;;;;;5001391;28;20239;-77
2023/07/07 00:23:20;;;;;;;10.25;4.53;;;13.70;99.90;;;;;;5001000;28;20310;-77
2023/07/07 00:26:06;;;;;;;10.20;4.90;;;13.60;99.90;;;;;;4985079;28;20030;-77
2023/07/07 00:28:33;;;;;;;11.18;5.18;;;13.60;99.90;;;;;;5001063;28;20030;-77
2023/07/07 00:30:59;;;;;;;10.43;4.55;;;13.60;99.90;;;;;;4991838;28;20299;-77
2023/07/07 00:33:25;;;;;;;12.00;4.75;;;13.60;99.90;;;;;;5003965;28;20057;-77
2023/07/07 00:35:52;;;;;;;10.80;5.07;;;13.60;99.90;;;;;;5004246;28;20334;-77
2023/07/07 00:38:19;;;;;;;9.93;4.80;;;13.60;99.90;;;;;;5004112;28;20128;-77
2023/07/07 00:40:45;;;;;;;11.73;5.30;;;13.60;99.90;;;;;;5004524;28;20175;-77
2023/07/07 00:43:16;;;;;;;10.43;4.90;;;13.50;99.90;;;;;;5020360;28;20022;-77
2023/07/07 00:45:42;;;;;;;12.15;4.93;;;13.50;99.90;;;;;;5020533;28;20095;-77
2023/07/07 00:48:12;;;;;;;9.95;5.03;;;13.50;99.90;;;;;;4984564;28;20282;-77
2023/07/07 00:50:59;;;;;;;9.85;4.60;;;13.50;99.90;;;;;;5086633;28;20057;-77
2023/07/07 00:53:26;;;;;;;10.45;4.72;;;13.40;99.90;;;;;;5016024;28;20229;-77
2023/07/07 00:55:58;;;;;;;10.07;5.05;;;13.40;99.90;;;;;;5004012;28;20026;-77
2023/07/07 00:58:25;;;;;;;11.57;4.50;;;13.40;99.90;;;;;;5003897;28;20252;-77
2023/07/07 01:00:57;;;;;;;13.35;4.88;;;13.40;99.90;;;;;;5004109;28;20370;-77
2023/07/07 01:03:32;;;;;;;10.70;4.63;;;13.40;99.90;;;;;;5003287;28;20025;-77
2023/07/07 01:06:01;;;;;;;10.90;4.88;;;13.30;99.90;;;;;;5020246;28;20105;-77
2023/07/07 01:08:28;;;;;;;11.90;5.10;;;13.30;99.90;;;;;;5019870;28;20214;-77
2023/07/07 01:10:54;;;;;;;11.82;5.65;;;13.40;99.90;;;;;;5003711;28;20182;-77
2023/07/07 01:13:21;;;;;;;13.57;6.15;;;13.40;99.90;;;;;;4997337;28;20102;-77
2023/07/07 01:16:08;;;;;;;12.50;5.10;;;13.40;99.90;;;;;;5020038;28;20172;-77
2023/07/07 01:18:46;;;;;;;9.88;5.10;;;13.40;99.90;;;;;;5019617;28;20022;-77
2023/07/07 01:21:29;;;;;;;14.00;6.28;;;13.40;99.90;;;;;;5019977;28;20047;-77
2023/07/07 01:24:10;;;;;;;15.30;5.38;;;13.40;99.90;;;;;;5007377;28;20049;-77
2023/07/07 01:26:44;;;;;;;13.27;5.70;;;13.30;99.90;;;;;;5019629;28;20030;-77
2023/07/07 01:29:28;;;;;;;13.90;5.70;;;13.30;99.90;;;;;;5003420;28;20041;-77
2023/07/07 01:32:08;;;;;;;14.48;5.82;;;13.30;99.90;;;;;;5019433;28;20171;-77
2023/07/07 01:34:35;;;;;;;10.57;5.20;;;13.30;99.90;;;;;;5019638;28;20046;-77
2023/07/07 01:37:01;;;;;;;11.75;5.43;;;13.30;99.90;;;;;;5019473;28;20097;-77
2023/07/07 01:39:27;;;;;;;13.25;5.80;;;13.30;99.90;;;;;;5003467;28;20071;-77
2023/07/07 01:41:58;;;;;;;11.90;5.45;;;13.30;99.90;;;;;;5019416;28;20022;-77
2023/07/07 01:44:39;;;;;;;10.63;5.53;;;13.30;99.90;;;;;;5003185;28;20314;-77
2023/07/07 01:47:13;;;;;;;10.77;5.30;;;13.30;99.90;;;;;;5003089;28;20081;-77
2023/07/07 01:49:58;;;;;;;16.35;6.20;;;13.30;99.90;;;;;;5019450;28;20101;-77
2023/07/07 01:52:32;;;;;;;13.07;6.15;;;13.30;99.90;;;;;;5019182;28;20022;-77
2023/07/07 01:55:11;;;;;;;10.50;5.78;;;13.30;99.90;;;;;;5002885;28;20030;-77
2023/07/07 01:57:40;;;;;;;10.93;5.78;;;13.30;99.90;;;;;;5019344;28;20072;-77
2023/07/07 02:00:07;;;;;;;12.57;6.72;;;13.30;99.90;;;;;;5002895;28;20026;-77
2023/07/07 02:02:33;;;;;;;11.70;5.82;;;13.40;99.90;;;;;;5002684;28;20022;-77
2023/07/07 02:04:58;;;;;;;11.27;6.82;;;13.40;99.90;;;;;;5002863;28;20034;-76
2023/07/07 02:07:24;;;;;;;12.88;6.80;;;13.50;99.90;;;;;;5002654;28;20053;-77
2023/07/07 02:09:50;;;;;;;11.35;6.40;;;13.50;99.90;;;;;;5002696;28;20036;-77
2023/07/07 02:12:15;;;;;;;12.50;6.72;;;13.40;99.90;;;;;;5002750;28;20017;-77
2023/07/07 02:14:41;;;;;;;13.27;6.78;;;13.50;99.90;;;;;;5018209;28;20026;-77
2023/07/07 02:17:07;;;;;;;13.15;7.00;;;13.40;99.90;;;;;;5018764;28;20093;-77
2023/07/07 02:19:32;;;;;;;13.90;7.30;;;13.50;99.90;;;;;;5018726;28;20053;-77
2023/07/07 02:21:58;;;;;;;13.52;7.25;;;13.50;99.90;;;;;;5018808;28;20030;-77
2023/07/07 02:24:24;;;;;;;14.60;7.95;;;13.50;99.90;;;;;;5002715;28;20106;-76
2023/07/07 02:26:50;;;;;;;14.10;7.68;;;13.50;99.90;;;;;;5002359;28;20127;-76
2023/07/07 02:29:16;;;;;;;13.88;8.13;;;13.50;99.90;;;;;;5018578;28;20018;-77
2023/07/07 02:31:42;;;;;;;13.32;7.90;;;13.50;99.90;;;;;;5018625;28;20172;-77
2023/07/07 02:34:07;;;;;;;12.25;6.93;;;13.50;99.90;;;;;;5018892;28;20093;-77
2023/07/07 02:36:36;;;;;;;12.50;7.68;;;13.50;99.90;;;;;;5002144;28;20061;-77
2023/07/07 02:39:03;;;;;;;14.82;7.90;;;13.50;99.90;;;;;;5002830;28;20026;-77
2023/07/07 02:41:28;;;;;;;15.35;8.52;;;13.50;99.90;;;;;;5002383;28;20071;-76
2023/07/07 02:43:54;;;;;;;15.77;8.02;;;13.50;99.90;;;;;;5002250;28;20202;-77
2023/07/07 02:46:20;;;;;;;13.85;8.07;;;13.50;99.90;;;;;;5018421;28;20072;-77
2023/07/07 02:48:46;;;;;;;14.23;7.75;;;13.50;99.90;;;;;;5002204;28;20018;-77
2023/07/07 02:51:11;;;;;;;14.82;7.95;;;13.50;99.90;;;;;;5001995;28;20134;-77
2023/07/07 02:53:37;;;;;;;15.75;8.57;;;13.60;99.90;;;;;;5018532;28;20049;-77
2023/07/07 02:56:04;;;;;;;13.95;8.20;;;13.50;99.90;;;;;;5002376;28;20052;-77
2023/07/07 02:58:30;;;;;;;16.77;8.23;;;13.50;99.90;;;;;;5002007;28;20673;-77
2023/07/07 03:01:14;;;;;;;13.13;7.90;;;13.40;99.90;;;;;;5018500;28;20022;-77
2023/07/07 03:03:43;;;;;;;13.85;7.88;;;13.50;99.90;;;;;;5018252;28;20033;-77
2023/07/07 03:06:13;;;;;;;15.18;8.20;;;13.50;99.90;;;;;;5018463;28;20172;-77
2023/07/07 03:08:39;;;;;;;15.43;8.05;;;13.50;99.90;;;;;;5018202;28;20037;-77
2023/07/07 03:11:10;;;;;;;15.27;8.35;;;13.50;99.90;;;;;;5018148;28;20022;-77
2023/07/07 03:13:36;;;;;;;14.68;7.78;;;13.50;99.90;;;;;;5018251;28;20033;-77
2023/07/07 03:16:21;;;;;;;13.85;8.30;;;13.50;99.90;;;;;;5002105;28;20026;-77
2023/07/07 03:18:48;;;;;;;13.82;8.85;;;13.50;99.90;;;;;;5017091;28;20022;-77
2023/07/07 03:21:16;;;;;;;15.57;8.07;;;13.50;99.90;;;;;;5001841;28;20030;-77
2023/07/07 03:23:42;;;;;;;17.23;7.90;;;13.50;99.90;;;;;;5001567;28;20029;-77
2023/07/07 03:26:19;;;;;;;15.75;8.30;;;13.50;99.90;;;;;;5020034;28;20071;-77
2023/07/07 03:28:45;;;;;;;17.10;9.20;;;13.40;99.90;;;;;;5021548;28;20025;-77
2023/07/07 03:31:13;;;;;;;14.90;8.55;;;13.40;99.90;;;;;;5021399;28;20071;-77
2023/07/07 03:33:40;;;;;;;14.35;8.45;;;13.40;99.90;;;;;;5021394;28;20026;-77
2023/07/07 03:36:06;;;;;;;14.57;7.72;;;13.40;99.90;;;;;;5021370;28;20048;-77
2023/07/07 03:38:32;;;;;;;13.13;7.78;;;13.40;99.90;;;;;;5005040;28;20037;-77
2023/07/07 03:40:58;;;;;;;15.63;8.63;;;13.40;99.90;;;;;;5021392;28;20196;-77
2023/07/07 03:43:23;;;;;;;13.65;8.18;;;13.40;99.90;;;;;;5021077;28;20049;-77
2023/07/07 03:45:49;;;;;;;16.33;8.70;;;13.40;99.90;;;;;;5005031;28;20032;-76
2023/07/07 03:48:15;;;;;;;17.90;8.52;;;13.40;99.90;;;;;;5021035;28;20044;-76
2023/07/07 03:50:40;;;;;;;15.50;8.35;;;13.40;99.90;;;;;;5004893;28;20034;-76
2023/07/07 03:53:06;;;;;;;15.02;8.45;;;13.40;99.90;;;;;;5004708;28;20021;-76
2023/07/07 03:55:32;;;;;;;14.10;8.23;;;13.50;99.90;;;;;;5021177;28;20026;-76
2023/07/07 03:57:57;;;;;;;12.88;7.53;;;13.50;99.90;;;;;;5020916;28;20026;-77
2023/07/07 04:00:23;;;;;;;16.40;8.77;;;13.50;99.90;;;;;;5004757;28;20271;-77
2023/07/07 04:02:49;;;;;;;14.85;8.10;;;13.50;99.90;;;;;;5020583;28;20050;-77
2023/07/07 04:05:15;;;;;;;18.80;8.60;;;13.50;99.90;;;;;;5020960;28;20022;-77
2023/07/07 04:07:41;;;;;;;14.48;8.25;;;13.60;99.90;;;;;;5020691;28;20038;-77
2023/07/07 04:10:08;;;;;;;14.75;8.70;;;13.60;99.90;;;;;;4984967;28;20199;-77
2023/07/07 04:12:34;;;;;;;16.55;9.27;;;13.70;99.90;;;;;;5014894;28;20036;-77
2023/07/07 04:15:00;;;;;;;19.10;9.30;;;13.70;99.90;;;;;;5020739;28;20029;-77
2023/07/07 04:17:26;;;;;;;15.00;8.50;;;13.80;99.90;;;;;;5020629;28;20025;-77
2023/07/07 04:19:53;;;;;;;15.48;9.25;;;13.80;99.90;;;;;;5009383;28;20097;-77
2023/07/07 04:22:18;;;;;;;17.13;8.73;;;13.90;99.90;;;;;;5004087;28;20309;-77
2023/07/07 04:24:44;;;;;;;15.02;9.20;;;14.00;99.90;;;;;;5004513;28;20026;-77
2023/07/07 04:27:10;;;;;;;15.52;8.60;;;14.00;99.90;;;;;;5020434;28;20321;-77
2023/07/07 04:29:36;;;;;;;15.60;8.90;;;14.10;99.90;;;;;;5004330;28;20030;-77
2023/07/07 04:32:03;;;;;;;15.50;8.60;;;14.20;99.90;;;;;;4984810;28;20076;-77
2023/07/07 04:34:30;;;;;;;14.85;9.00;;;14.20;99.90;;;;;;5001158;28;20060;-77
2023/07/07 04:36:56;;;;;;;14.25;8.55;;;14.30;99.90;;;;;;4984026;28;20147;-77
2023/07/07 04:39:22;;;;;;;16.00;8.68;;;14.30;99.90;;;;;;5017057;28;20033;-76
2023/07/07 04:41:51;;;;;;;12.93;7.72;;;14.40;99.90;;;;;;5020547;28;20035;-76
2023/07/07 04:44:16;;;;;;;17.23;8.95;;;14.50;99.90;;;;;;5020363;28;20033;-77
2023/07/07 04:46:42;;;;;;;14.43;8.82;;;14.50;99.90;;;;;;5003773;28;20089;-77
2023/07/07 04:49:09;;;;;;;16.20;8.80;;;14.60;99.90;;;;;;5003766;28;20022;-77
2023/07/07 04:51:36;;;;;;;14.18;8.68;;;14.70;99.90;;;;;;5020429;28;20033;-77
2023/07/07 04:54:03;;;;;;;15.40;8.82;;;14.70;99.90;;;;;;5003933;28;20033;-77
2023/07/07 04:56:29;;;;;;;16.05;9.13;;;14.80;99.90;;;;;;5020061;28;20026;-77
2023/07/07 04:58:56;;;;;;;14.45;8.90;;;14.90;99.90;;;;;;5004001;28;20082;-77
2023/07/07 05:01:25;;;;;;;14.80;7.90;;;14.90;99.90;;;;;;5019936;28;20089;-77
2023/07/07 05:03:53;;;;;;;15.00;8.93;;;15.00;99.90;;;;;;5019805;28;20176;-77
2023/07/07 05:06:19;;;;;;;15.30;8.18;;;15.10;99.90;;;;;;5019922;28;20263;-77
2023/07/07 05:08:45;;;;;;;15.27;9.13;;;15.10;99.90;;;;;;5019974;28;20017;-77
2023/07/07 05:11:15;;;;;;;16.23;8.73;;;15.20;99.90;;;;;;5003434;28;20305;-77
2023/07/07 05:13:40;;;;;;;17.90;9.02;;;15.30;99.90;;;;;;5019762;28;20028;-77
2023/07/07 05:16:09;;;;;;;15.70;9.02;;;15.40;99.90;;;;;;5003336;28;20018;-77
2023/07/07 05:18:35;;;;;;;15.57;9.07;;;15.40;99.90;;;;;;5003109;28;20030;-77
2023/07/07 05:21:01;;;;;;;14.68;9.02;;;15.50;99.90;;;;;;5019644;28;20029;-77
2023/07/07 05:23:27;;;;;;;16.02;9.35;;;15.60;99.90;;;;;;5019406;28;20104;-77
2023/07/07 05:25:53;;;;;;;15.75;8.73;;;15.60;99.90;;;;;;5019561;28;20100;-77
2023/07/07 05:28:19;;;;;;;14.07;8.25;;;15.80;99.90;;;;;;5019354;28;20282;-77
2023/07/07 05:30:45;;;;;;;17.23;8.60;;;15.80;99.90;;;;;;5003194;28;20029;-77
2023/07/07 05:33:11;;;;;;;13.25;8.95;;;15.90;99.90;;;;;;5019598;28;20018;-77
2023/07/07 05:35:49;;;;;;;14.25;8.93;;;16.00;99.90;;;;;;4985193;28;20203;-77
2023/07/07 05:38:16;;;;;;;14.93;8.43;;;16.10;99.90;;;;;;5003312;28;20026;-77
2023/07/07 05:40:43;;;;;;;15.32;9.13;;;16.10;99.90;;;;;;5019483;28;20109;-76
2023/07/07 05:43:09;;;;;;;15.90;8.50;;;16.20;99.90;;;;;;5019557;28;20056;-77
2023/07/07 05:45:35;;;;;;;22.27;9.18;;;16.30;99.90;;;;;;5019684;28;20259;-77
2023/07/07 05:48:00;;;;;;;13.55;8.20;;;16.40;99.90;;;;;;5019041;28;20025;-77
2023/07/07 05:50:27;;;;;;;15.98;9.18;;;16.50;99.90;;;;;;5001767;28;20034;-77
2023/07/07 05:52:52;;;;;;;15.05;8.32;;;16.60;99.90;;;;;;5019253;28;20029;-77
2023/07/07 05:55:30;;;;;;;15.70;8.57;;;16.70;99.90;;;;;;5019290;28;20176;-77
2023/07/07 05:57:56;;;;;;;15.18;9.13;;;16.70;99.90;;;;;;5002650;28;20024;-77
2023/07/07 06:00:23;;;;;;;14.90;8.68;;;16.80;99.90;;;;;;5003092;28;20318;-77
2023/07/07 06:02:49;;;;;;;17.15;8.38;;;16.90;99.90;;;;;;5019006;28;20041;-77
2023/07/07 06:05:15;;;;;;;16.52;8.55;;;17.00;99.90;;;;;;4983524;28;20252;-76
2023/07/07 06:07:41;;;;;;;13.75;8.02;;;17.10;99.90;;;;;;5002921;28;20158;-77
2023/07/07 06:10:10;;;;;;;13.48;7.70;;;17.20;99.90;;;;;;5018990;28;20037;-77
2023/07/07 06:12:36;;;;;;;15.27;8.25;;;17.30;99.90;;;;;;5002783;28;20178;-77
2023/07/07 06:15:03;;;;;;;12.25;8.15;;;17.40;99.90;;;;;;5019087;28;20102;-77
2023/07/07 06:17:29;;;;;;;12.63;7.40;;;17.50;99.90;;;;;;4982987;28;20696;-77
2023/07/07 06:19:55;;;;;;;17.55;6.88;;;17.60;99.90;;;;;;5002212;28;20037;-77
2023/07/07 06:22:21;;;;;;;17.02;7.55;;;17.70;99.90;;;;;;5018705;28;20021;-77
2023/07/07 06:24:46;;;;;;;14.10;7.38;;;17.80;99.90;;;;;;5002726;28;20032;-77
2023/07/07 06:27:12;;;;;;;12.23;7.00;;;17.90;99.90;;;;;;5002366;28;20083;-77
2023/07/07 06:29:38;;;;;;;13.43;7.13;;;18.00;99.90;;;;;;5018809;28;20026;-77
2023/07/07 06:32:04;;;;;;;13.80;7.07;;;18.00;99.90;;;;;;5018582;28;20022;-77
2023/07/07 06:34:29;;;;;;;13.35;6.68;;;18.10;99.90;;;;;;5018753;28;20045;-77
2023/07/07 06:36:55;;;;;;;14.02;7.00;;;18.20;99.90;;;;;;5002299;28;20079;-77
2023/07/07 06:39:21;;;;;;;12.60;6.82;;;18.30;99.90;;;;;;5018727;28;20106;-77
2023/07/07 06:41:46;;;;;;;12.80;6.22;;;18.40;99.90;;;;;;5002306;28;20111;-77
2023/07/07 06:44:12;;;;;;;12.50;6.82;;;18.50;99.90;;;;;;5018587;28;20030;-76
2023/07/07 06:46:38;;;;;;;10.77;6.22;;;18.60;99.90;;;;;;5018603;28;20025;-76
2023/07/07 06:49:04;;;;;;;14.23;6.05;;;18.60;99.90;;;;;;5002295;28;20026;-77
2023/07/07 06:51:31;;;;;;;12.05;5.97;;;18.70;99.90;;;;;;5018303;28;20028;-77
2023/07/07 06:53:57;;;;;;;11.93;5.90;;;18.90;99.90;;;;;;5002537;28;20225;-77
2023/07/07 06:56:23;;;;;;;11.40;5.95;;;19.00;99.90;;;;;;5018468;28;20022;-76
2023/07/07 06:58:49;;;;;;;11.73;5.57;;;19.00;99.90;;;;;;5002155;28;20054;-76
2023/07/07 07:01:16;;;;;;;11.40;5.32;;;19.10;99.90;;;;;;5004157;28;20250;-76
2023/07/07 07:03:43;;;;;;;11.98;5.43;;;19.20;99.90;;;;;;5005688;28;20037;-77
2023/07/07 07:06:10;;;;;;;12.57;5.63;;;19.30;99.90;;;;;;5005604;28;20030;-76
2023/07/07 07:08:35;;;;;;;12.48;5.82;;;19.40;99.90;;;;;;5021571;28;20278;-76
2023/07/07 07:11:01;;;;;;;12.73;5.32;;;19.40;99.90;;;;;;5021588;28;20049;-76
2023/07/07 07:13:27;;;;;;;12.13;5.20;;;19.50;99.90;;;;;;4986136;28;20026;-76
2023/07/07 07:15:53;;;;;;;9.98;5.00;;;19.60;99.90;;;;;;4986096;28;20022;-76
2023/07/07 07:18:19;;;;;;;11.02;5.05;;;19.70;99.90;;;;;;4998370;28;20086;-76
2023/07/07 07:20:48;;;;;;;10.05;4.53;;;19.90;99.90;;;;;;5021839;28;20093;-77
2023/07/07 07:23:15;;;;;;;16.23;4.63;;;19.90;99.90;;;;;;5005088;28;20049;-76
2023/07/07 07:25:42;;;;;;;10.93;5.13;;;20.00;99.90;;;;;;5005497;28;20035;-76
2023/07/07 07:28:09;;;;;;;9.68;4.25;;;20.00;99.90;;;;;;5005062;28;20242;-76
2023/07/07 07:30:35;;;;;;;10.30;4.25;;;20.10;99.90;;;;;;5021534;28;20030;-76
2023/07/07 07:33:03;;;;;;;9.27;4.03;;;20.30;99.90;;;;;;5005106;28;20056;-76
2023/07/07 07:35:29;;;;;;;11.30;4.65;;;20.30;99.90;;;;;;5021240;28;20355;-76
2023/07/07 07:37:55;;;;;;;11.88;4.30;;;20.40;99.90;;;;;;5021461;28;20268;-76
2023/07/07 07:40:23;;;;;;;11.73;4.30;;;20.40;99.90;;;;;;5021413;28;20022;-76
2023/07/07 07:42:52;;;;;;;9.43;3.85;;;20.50;99.90;;;;;;5004919;28;20086;-76
2023/07/07 07:45:20;;;;;;;9.18;4.32;;;20.70;99.90;;;;;;5021443;28;20045;-76
2023/07/07 07:47:46;;;;;;;12.00;4.10;;;20.60;99.90;;;;;;4985646;28;20023;-76
2023/07/07 07:50:14;;;;;;;9.73;3.95;;;20.80;99.90;;;;;;5017051;28;20029;-76
2023/07/07 07:52:39;;;;;;;10.00;3.60;;;20.80;99.90;;;;;;5021131;28;20067;-76
2023/07/07 07:55:05;;;;;;;8.80;3.40;;;20.90;99.90;;;;;;5021097;28;20081;-76
2023/07/07 07:57:31;;;;;;;9.52;3.08;;;21.10;99.90;;;;;;5090003;28;20245;-76
2023/07/07 07:59:57;;;;;;;9.52;3.40;;;21.20;99.90;;;;;;5021036;28;20030;-76
2023/07/07 08:02:23;;;;;;;10.73;3.13;;;21.20;99.90;;;;;;4985104;28;20056;-76
2023/07/07 08:04:49;;;;;;;9.18;3.70;;;21.30;99.90;;;;;;5014563;28;20093;-76
2023/07/07 08:07:15;;;;;;;8.18;3.08;;;21.40;99.90;;;;;;5004700;28;20032;-76
2023/07/07 08:09:40;;;;;;;8.45;3.00;;;21.40;99.90;;;;;;5020882;28;20200;-76
2023/07/07 08:12:09;;;;;;;8.27;2.78;;;21.50;99.90;;;;;;5019623;28;20089;-76
2023/07/07 08:14:34;;;;;;;7.82;2.70;;;21.60;99.90;;;;;;5020928;28;20037;-76
2023/07/07 08:17:08;;;;;;;10.98;3.30;;;21.70;99.90;;;;;;5004171;28;20260;-76
2023/07/07 08:19:36;;;;;;;10.18;2.95;;;21.80;99.90;;;;;;5020710;28;20029;-76
2023/07/07 08:22:05;;;;;;;7.13;2.80;;;21.80;99.90;;;;;;5020575;28;20034;-76
2023/07/07 08:24:38;;;;;;;7.15;2.63;;;21.90;99.90;;;;;;5020880;28;20090;-76
2023/07/07 08:27:04;;;;;;;9.90;2.97;;;22.00;99.90;;;;;;5020565;28;20036;-76
2023/07/07 08:29:29;;;;;;;11.60;2.83;;;22.10;99.90;;;;;;5020768;28;20041;-76
2023/07/07 08:31:55;;;;;;;8.93;2.75;;;22.20;99.90;;;;;;5020603;28;20053;-76
2023/07/07 08:34:21;;;;;;;7.85;2.70;;;22.20;99.90;;;;;;4984664;28;20050;-77
2023/07/07 08:36:47;;;;;;;8.30;2.83;;;22.30;99.90;;;;;;5018195;28;20220;-76
2023/07/07 08:39:19;;;;;;;7.85;2.50;;;22.30;99.90;;;;;;5004272;28;20065;-76
2023/07/07 08:42:06;;;;;;;8.60;2.70;;;22.40;99.90;;;;;;5020363;28;20260;-76
2023/07/07 08:44:34;;;;;;;8.13;2.97;;;22.50;99.90;;;;;;5004324;28;20060;-76
2023/07/07 08:47:24;;;;;;;8.40;2.90;;;22.50;99.90;;;;;;5020385;28;20106;-76
2023/07/07 08:50:01;;;;;;;9.18;2.92;;;22.60;99.90;;;;;;5020317;28;20029;-76
2023/07/07 08:52:39;;;;;;;8.38;2.90;;;22.60;99.90;;;;;;5004165;28;20033;-76
2023/07/07 08:55:44;;;;;;;5.93;2.33;;;22.60;99.90;;;;;;5004018;28;20033;-76
2023/07/07 08:58:44;;;;;;;7.47;2.25;;;22.70;99.90;;;;;;5019392;28;20188;-76
2023/07/07 09:01:12;;;;;;;8.20;2.80;;;22.80;99.90;;;;;;5003738;28;20037;-76
2023/07/07 09:03:53;;;;;;;6.80;2.40;;;22.90;99.90;;;;;;5020224;28;20194;-76
2023/07/07 09:06:51;;;;;;;8.95;2.65;;;22.90;99.90;;;;;;5020015;28;20034;-76
2023/07/07 09:09:47;;;;;;;6.95;2.05;;;23.00;99.90;;;;;;4953522;28;20042;-76
2023/07/07 09:12:38;;;;;;;6.63;2.08;;;23.10;99.90;;;;;;5019874;28;20093;-76
2023/07/07 09:15:32;;;;;;;8.25;2.30;;;23.20;99.90;;;;;;5019949;28;20018;-76
2023/07/07 09:18:18;;;;;;;7.82;2.30;;;23.20;99.90;;;;;;4993930;28;20030;-76
2023/07/07 09:20:51;;;;;;;9.18;2.60;;;23.30;99.90;;;;;;5019980;28;20836;-76
2023/07/07 09:23:19;;;;;;;;;;;23.40;99.90;;;;;;5003542;28;20216;-76
2023/07/07 09:26:10;;;;;;;8.20;2.67;;;23.40;99.90;;;;;;5020268;28;19961;-76
2023/07/07 09:28:43;;;;;;;7.70;2.60;;;23.60;99.90;;;;;;5002879;28;20041;-76
2023/07/07 09:31:27;;;;;;;8.93;2.28;;;23.60;99.90;;;;;;5019663;28;20046;-76
2023/07/07 09:33:55;;;;;;;7.25;2.38;;;23.70;99.90;;;;;;5019753;28;20335;-76
2023/07/07 09:36:38;;;;;;;7.38;2.47;;;23.70;99.90;;;;;;5003175;28;20264;-76
2023/07/07 09:39:28;;;;;;;7.75;2.45;;;23.80;99.90;;;;;;5019527;28;20033;-76
2023/07/07 09:42:38;;;;;;;7.80;2.50;;;23.90;99.90;;;;;;5019373;28;20038;-76
2023/07/07 09:45:31;;;;;;;8.00;2.47;;;23.90;99.90;;;;;;4963276;28;20031;-76
2023/07/07 09:48:13;;;;;;;8.95;2.72;;;24.00;99.90;;;;;;4963141;28;20180;-76
2023/07/07 09:50:45;;;;;;;6.82;2.30;;;24.10;99.90;;;;;;5009875;28;20052;-76
2023/07/07 09:53:40;;;;;;;7.47;2.23;;;24.10;99.90;;;;;;5002943;28;20026;-76
2023/07/07 09:56:13;;;;;;;7.55;2.72;;;24.10;99.90;;;;;;4990597;28;20029;-76
2023/07/07 09:58:51;;;;;;;7.43;2.20;;;24.20;99.90;;;;;;5019239;28;20029;-76
2023/07/07 10:01:18;;;;;;;10.02;2.92;;;24.30;99.90;;;;;;5019219;28;20061;-76
2023/07/07 10:03:46;;;;;;;7.25;2.65;;;24.40;99.90;;;;;;5019087;28;20087;-76
2023/07/07 10:06:34;;;;;;;7.82;2.80;;;24.40;99.90;;;;;;5002830;28;20253;-76
2023/07/07 10:09:01;;;;;;;8.77;2.40;;;24.50;99.90;;;;;;5019311;28;20101;-76
2023/07/07 10:11:32;;;;;;;7.38;2.45;;;24.50;99.90;;;;;;5018796;28;20038;-77
2023/07/07 10:13:58;;;;;;;7.18;2.40;;;24.60;99.90;;;;;;5002870;28;20025;-77
2023/07/07 10:16:32;;;;;;;6.82;2.30;;;24.70;99.90;;;;;;5018788;28;20171;-76
2023/07/07 10:19:06;;;;;;;8.10;2.33;;;24.70;99.90;;;;;;5018751;28;20018;-77
2023/07/07 10:21:33;;;;;;;7.05;2.25;;;24.80;99.90;;;;;;5018895;28;20030;-77
2023/07/07 10:23:58;;;;;;;8.40;2.47;;;24.80;99.90;;;;;;5002737;28;20021;-76
2023/07/07 10:26:24;;;;;;;7.40;2.55;;;24.90;99.90;;;;;;5002281;28;20022;-77
2023/07/07 10:28:55;;;;;;;7.57;2.22;;;24.90;99.90;;;;;;5018797;28;20025;-77
2023/07/07 10:31:24;;;;;;;6.82;2.20;;;24.90;99.90;;;;;;5018929;28;20316;-77
2023/07/07 10:33:55;;;;;;;9.70;2.72;;;25.10;99.90;;;;;;5002423;28;20086;-77
2023/07/07 10:36:25;;;;;;;7.43;2.45;;;24.90;99.90;;;;;;5017625;28;20261;-77
2023/07/07 10:38:56;;;;;;;8.05;2.90;;;25.10;99.90;;;;;;5018723;28;20264;-77
2023/07/07 10:41:26;;;;;;;8.15;2.40;;;25.30;99.90;;;;;;5018421;28;20079;-77
2023/07/07 10:43:53;;;;;;;7.32;2.42;;;25.40;99.90;;;;;;5018806;28;20030;-77
2023/07/07 10:46:19;;;;;;;7.57;2.67;;;25.30;99.90;;;;;;5018658;28;20032;-77
2023/07/07 10:48:46;;;;;;;8.75;2.97;;;25.40;99.90;;;;;;4982680;28;20027;-77
2023/07/07 10:51:12;;;;;;;8.32;2.60;;;25.60;99.90;;;;;;5086515;28;20062;-77
2023/07/07 10:53:53;;;;;;;7.32;2.50;;;25.50;99.90;;;;;;5002157;28;20052;-77
2023/07/07 10:56:42;;;;;;;8.13;2.80;;;25.50;99.90;;;;;;5002081;28;20022;-77
2023/07/07 10:59:23;;;;;;;7.50;2.45;;;25.60;99.90;;;;;;5018299;28;20036;-77
2023/07/07 11:02:19;;;;;;;8.48;2.70;;;25.60;99.90;;;;;;5018234;28;20033;-77
2023/07/07 11:05:03;;;;;;;7.25;2.65;;;25.50;99.90;;;;;;5002098;28;20154;-77
2023/07/07 11:07:43;;;;;;;7.25;2.40;;;25.50;99.90;;;;;;5018428;28;20017;-77
2023/07/07 11:10:21;;;;;;;10.88;2.58;;;25.60;99.90;;;;;;5001969;28;20030;-77
2023/07/07 11:12:47;;;;;;;7.68;2.50;;;25.60;99.90;;;;;;5001743;28;20093;-77
2023/07/07 11:15:33;;;;;;;7.00;2.42;;;25.70;99.90;;;;;;5018855;28;20262;-77
2023/07/07 11:18:14;;;;;;;9.80;3.10;;;25.50;99.90;;;;;;5014768;28;20064;-77
2023/07/07 11:20:59;;;;;;;8.10;2.65;;;25.60;99.90;;;;;;5011007;28;20180;-77
2023/07/07 11:23:43;;;;;;;7.80;2.72;;;25.70;99.90;;;;;;5018342;28;20029;-77
2023/07/07 11:27:05;;;;;;;8.23;2.55;;;24.10;99.90;;;;;;5018168;28;20186;-77
2023/07/07 11:30:03;;;;;;;8.40;2.63;;;26.00;99.90;;;;;;4969565;28;20206;-78
2023/07/07 11:32:43;;;;;;;10.07;2.60;;;26.00;99.90;;;;;;5005406;28;20026;-78
2023/07/07 11:35:27;;;;;;;8.30;2.50;;;26.10;99.90;;;;;;5018255;28;20046;-78
2023/07/07 11:38:34;;;;;;;8.52;2.80;;;26.00;99.90;;;;;;5017942;28;20363;-77
2023/07/07 11:41:16;;;;;;;8.13;2.40;;;26.10;99.90;;;;;;4981658;28;20264;-77
2023/07/07 11:43:55;;;;;;;7.15;2.50;;;26.10;99.90;;;;;;5001610;28;20033;-77
2023/07/07 11:46:39;;;;;;;7.80;2.80;;;26.10;99.90;;;;;;5018610;28;20026;-77
2023/07/07 11:49:25;;;;;;;7.55;2.30;;;26.40;99.90;;;;;;5021416;28;20175;-77
2023/07/07 11:52:20;;;;;;;7.22;2.47;;;26.30;99.90;;;;;;5004882;28;20018;-77
2023/07/07 11:54:53;;;;;;;8.57;2.50;;;26.50;99.90;;;;;;5021293;28;20063;-77
2023/07/07 11:57:43;;;;;;;7.90;2.50;;;26.40;99.90;;;;;;5021007;28;20025;-77
2023/07/07 12:00:59;;;;;;;9.27;3.03;;;26.40;99.90;;;;;;5021086;28;20033;-78
2023/07/07 12:03:53;;;;;;;8.38;2.53;;;26.30;99.90;;;;;;4969215;28;20091;-78
2023/07/07 12:06:35;;;;;;;9.38;2.83;;;26.30;99.90;;;;;;5007877;28;20030;-77
2023/07/07 12:09:16;;;;;;;7.22;2.40;;;26.40;99.90;;;;;;5004747;28;20090;-77
2023/07/07 12:11:52;;;;;;;8.25;2.58;;;26.30;99.90;;;;;;5020658;28;20022;-77
2023/07/07 12:14:50;;;;;;;6.45;2.30;;;26.30;99.90;;;;;;5020880;28;20028;-77
2023/07/07 12:17:26;;;;;;;7.70;2.70;;;26.30;99.90;;;;;;5020611;28;20028;-77
2023/07/07 12:19:56;;;;;;;7.53;2.65;;;26.30;99.90;;;;;;5010825;28;20034;-77
2023/07/07 12:22:28;;;;;;;7.28;2.35;;;26.50;99.90;;;;;;5004251;28;20287;-77
2023/07/07 12:25:04;;;;;;;7.47;2.40;;;26.50;99.90;;;;;;5004539;28;20029;-77
2023/07/07 12:27:35;;;;;;;9.38;2.58;;;26.50;99.90;;;;;;5020445;28;20044;-77
2023/07/07 12:30:03;;;;;;;9.52;2.88;;;26.50;99.90;;;;;;5020662;28;20236;-77
2023/07/07 12:32:29;;;;;;;8.00;2.70;;;26.50;99.90;;;;;;5020278;28;20085;-77
2023/07/07 12:35:25;;;;;;;8.32;2.70;;;26.60;99.90;;;;;;5004211;28;20341;-77
2023/07/07 12:37:51;;;;;;;8.85;2.70;;;26.60;99.90;;;;;;5020347;28;20037;-76
2023/07/07 12:40:19;;;;;;;8.02;2.42;;;26.80;99.90;;;;;;4984753;28;20034;-77
2023/07/07 12:42:47;;;;;;;8.30;2.67;;;26.70;99.90;;;;;;5019812;28;20244;-77
2023/07/07 12:45:19;;;;;;;8.18;2.47;;;26.80;99.90;;;;;;5020748;28;20093;-77
2023/07/07 12:47:51;;;;;;;8.52;2.53;;;26.80;99.90;;;;;;5020420;28;20037;-77
2023/07/07 12:50:26;;;;;;;8.05;2.38;;;26.70;99.90;;;;;;5020249;28;20058;-77
2023/07/07 12:52:53;;;;;;;7.15;2.53;;;26.80;99.90;;;;;;5020196;28;20210;-77
2023/07/07 12:55:28;;;;;;;8.13;2.70;;;26.60;99.90;;;;;;4984988;28;20023;-77
2023/07/07 12:58:06;;;;;;;8.18;2.55;;;26.60;99.90;;;;;;5019541;28;20085;-77
2023/07/07 13:00:37;;;;;;;7.18;2.40;;;26.70;99.90;;;;;;5003715;28;20033;-77
2023/07/07 13:03:09;;;;;;;8.95;2.58;;;26.70;99.90;;;;;;5020107;28;20025;-77